Airfield :
LOGIN :

Register | Disclaimer

   EN    FR    IT 

 










Legend :    VFR   Marginal VFR   IFR   Intensive IFR   Very Intensive IFR
Visi :
Ceiling :
>= 8 km
>= 3000ft
5 to 8 km
1000 to 3000 ft
1500m to 5 km
500 to 1000 ft
800 to 1500m
200 to 500 ft
< 800m
< 200 ft
Symbols :   Thunderstorms  Fog  Heavy snow  Heavy precipitations  Wind > 20 kt
SIGMETs :     Misc.  Thunderstorms  Icing  Turbulence  Mountain Waves  Volcanic Ashes







- Airport Elevation : 2077 ft
- IATA code : FMM


EDJA - Memmingen

CURRENT METAR :
  • 250820Z 22015KT CAVOK 18/09 Q1015

EXPIRED METARs :
  • 250750Z 22011KT 9999 BKN054 17/09 Q1015
  • 250720Z 20009KT 9999 FEW057 17/10 Q1015
  • 250650Z 21007KT CAVOK 16/10 Q1015
  • 250620Z 21007KT CAVOK 15/11 Q1015
  • 250550Z 21006KT CAVOK 12/10 Q1015

TAF TAF EDJA
Valid from the 25 at 09:00 until the 25 at 18:00 UTC


250800Z 2509/2518 23015G25KT 9999 SCT050
BECMG 2511/2513 26020G35KT
BECMG 2515/2517 26010KT
No reported NOTAMs for that airfield.



MET'MAP, your aeronautical weather chart ! - Copyright ORBIFLY December 2007 - Disclaimer

ORBIFLY MET'MAP TEAM :

Programming & Development : Alexandra Zaïnal
Concept & Development : Baudouin d'Aumeries
Co-Development & Prog : Marc-Olivier Méhu
Technical & hardware support : Manuel Goepfert

Contact : metmap@orbifly.com




SOURCES & CREDITS :

   NOAA